sensor_id;sensor_type;location;lat;lon;timestamp;P1;durP1;ratioP1;P2;durP2;ratioP2
13592;SDS011;6867;50.998;4.250;2022-12-01T00:01:15;18.30;;;10.90;;
13592;SDS011;6867;50.998;4.250;2022-12-01T00:03:43;14.17;;;9.57;;
13592;SDS011;6867;50.998;4.250;2022-12-01T00:06:12;17.47;;;10.90;;
13592;SDS011;6867;50.998;4.250;2022-12-01T00:08:40;21.23;;;11.17;;
13592;SDS011;6867;50.998;4.250;2022-12-01T00:11:28;19.57;;;11.20;;
13592;SDS011;6867;50.998;4.250;2022-12-01T00:13:54;17.47;;;10.53;;
13592;SDS011;6867;50.998;4.250;2022-12-01T00:16:20;21.23;;;10.87;;
13592;SDS011;6867;50.998;4.250;2022-12-01T00:18:48;17.93;;;11.20;;
13592;SDS011;6867;50.998;4.250;2022-12-01T00:21:16;23.30;;;12.67;;
13592;SDS011;6867;50.998;4.250;2022-12-01T00:23:45;22.27;;;12.13;;
13592;SDS011;6867;50.998;4.250;2022-12-01T00:26:12;24.77;;;12.63;;
13592;SDS011;6867;50.998;4.250;2022-12-01T00:28:39;31.60;;;13.20;;
13592;SDS011;6867;50.998;4.250;2022-12-01T00:31:06;25.90;;;14.27;;
13592;SDS011;6867;50.998;4.250;2022-12-01T00:33:33;23.43;;;13.80;;
13592;SDS011;6867;50.998;4.250;2022-12-01T00:36:00;24.07;;;14.63;;
13592;SDS011;6867;50.998;4.250;2022-12-01T00:38:28;25.97;;;14.10;;
13592;SDS011;6867;50.998;4.250;2022-12-01T00:40:55;22.90;;;13.83;;
13592;SDS011;6867;50.998;4.250;2022-12-01T00:43:22;22.23;;;14.33;;
13592;SDS011;6867;50.998;4.250;2022-12-01T00:45:49;24.40;;;14.47;;
13592;SDS011;6867;50.998;4.250;2022-12-01T00:48:16;25.53;;;14.27;;
13592;SDS011;6867;50.998;4.250;2022-12-01T00:50:43;26.20;;;15.07;;
13592;SDS011;6867;50.998;4.250;2022-12-01T00:53:10;25.93;;;15.37;;
13592;SDS011;6867;50.998;4.250;2022-12-01T00:55:38;26.77;;;14.97;;
13592;SDS011;6867;50.998;4.250;2022-12-01T00:58:05;27.30;;;15.10;;
13592;SDS011;6867;50.998;4.250;2022-12-01T01:00:32;27.43;;;15.10;;
13592;SDS011;6867;50.998;4.250;2022-12-01T01:03:02;32.00;;;15.50;;
13592;SDS011;6867;50.998;4.250;2022-12-01T01:05:29;28.63;;;16.17;;
13592;SDS011;6867;50.998;4.250;2022-12-01T01:07:56;38.93;;;18.17;;
13592;SDS011;6867;50.998;4.250;2022-12-01T01:10:22;38.27;;;20.20;;
13592;SDS011;6867;50.998;4.250;2022-12-01T01:12:50;34.40;;;18.73;;
13592;SDS011;6867;50.998;4.250;2022-12-01T01:15:17;31.87;;;16.57;;
13592;SDS011;6867;50.998;4.250;2022-12-01T01:17:44;41.07;;;19.73;;
13592;SDS011;6867;50.998;4.250;2022-12-01T01:20:11;36.47;;;19.20;;
13592;SDS011;6867;50.998;4.250;2022-12-01T01:22:38;37.30;;;19.30;;
13592;SDS011;6867;50.998;4.250;2022-12-01T01:25:05;31.73;;;17.57;;
13592;SDS011;6867;50.998;4.250;2022-12-01T01:27:32;36.97;;;18.47;;
13592;SDS011;6867;50.998;4.250;2022-12-01T01:30:01;37.93;;;18.17;;
13592;SDS011;6867;50.998;4.250;2022-12-01T01:32:28;38.13;;;19.43;;
13592;SDS011;6867;50.998;4.250;2022-12-01T01:34:54;34.20;;;18.17;;
13592;SDS011;6867;50.998;4.250;2022-12-01T01:37:21;36.97;;;19.37;;
13592;SDS011;6867;50.998;4.250;2022-12-01T01:39:48;38.80;;;20.03;;
13592;SDS011;6867;50.998;4.250;2022-12-01T01:42:17;40.17;;;19.60;;
13592;SDS011;6867;50.998;4.250;2022-12-01T01:44:46;40.70;;;20.23;;
13592;SDS011;6867;50.998;4.250;2022-12-01T01:47:19;43.20;;;20.53;;
13592;SDS011;6867;50.998;4.250;2022-12-01T01:49:49;42.87;;;20.83;;
13592;SDS011;6867;50.998;4.250;2022-12-01T01:52:17;42.07;;;20.47;;
13592;SDS011;6867;50.998;4.250;2022-12-01T01:54:45;39.33;;;19.90;;
13592;SDS011;6867;50.998;4.250;2022-12-01T01:57:16;38.10;;;18.43;;
13592;SDS011;6867;50.998;4.250;2022-12-01T01:59:51;44.00;;;19.87;;
13592;SDS011;6867;50.998;4.250;2022-12-01T02:02:24;38.43;;;18.93;;
13592;SDS011;6867;50.998;4.250;2022-12-01T02:04:54;37.90;;;19.47;;
13592;SDS011;6867;50.998;4.250;2022-12-01T02:07:24;35.47;;;19.10;;
13592;SDS011;6867;50.998;4.250;2022-12-01T02:09:51;38.07;;;19.23;;
13592;SDS011;6867;50.998;4.250;2022-12-01T02:12:30;40.00;;;19.83;;
13592;SDS011;6867;50.998;4.250;2022-12-01T02:15:14;40.17;;;18.53;;
13592;SDS011;6867;50.998;4.250;2022-12-01T02:17:51;41.57;;;19.50;;
13592;SDS011;6867;50.998;4.250;2022-12-01T02:20:41;37.83;;;18.13;;
13592;SDS011;6867;50.998;4.250;2022-12-01T02:23:23;40.20;;;18.73;;
13592;SDS011;6867;50.998;4.250;2022-12-01T02:26:18;37.20;;;18.83;;
13592;SDS011;6867;50.998;4.250;2022-12-01T02:29:02;43.80;;;21.10;;
13592;SDS011;6867;50.998;4.250;2022-12-01T02:31:46;36.53;;;18.43;;
13592;SDS011;6867;50.998;4.250;2022-12-01T02:34:22;36.03;;;18.33;;
13592;SDS011;6867;50.998;4.250;2022-12-01T02:36:56;34.80;;;18.60;;
13592;SDS011;6867;50.998;4.250;2022-12-01T02:39:28;44.27;;;18.57;;
13592;SDS011;6867;50.998;4.250;2022-12-01T02:42:00;40.67;;;19.40;;
13592;SDS011;6867;50.998;4.250;2022-12-01T02:44:31;38.97;;;18.70;;
13592;SDS011;6867;50.998;4.250;2022-12-01T02:47:03;38.00;;;18.07;;
13592;SDS011;6867;50.998;4.250;2022-12-01T02:49:36;39.03;;;19.43;;
13592;SDS011;6867;50.998;4.250;2022-12-01T02:52:06;37.80;;;18.03;;
13592;SDS011;6867;50.998;4.250;2022-12-01T02:54:35;40.67;;;18.93;;
13592;SDS011;6867;50.998;4.250;2022-12-01T02:57:02;41.20;;;19.80;;
13592;SDS011;6867;50.998;4.250;2022-12-01T02:59:29;45.00;;;20.53;;
13592;SDS011;6867;50.998;4.250;2022-12-01T03:01:59;41.77;;;20.10;;
13592;SDS011;6867;50.998;4.250;2022-12-01T03:04:48;42.83;;;20.60;;
13592;SDS011;6867;50.998;4.250;2022-12-01T03:10:12;36.03;;;17.97;;
13592;SDS011;6867;50.998;4.250;2022-12-01T03:12:48;40.70;;;18.90;;
13592;SDS011;6867;50.998;4.250;2022-12-01T03:15:27;35.10;;;17.73;;
13592;SDS011;6867;50.998;4.250;2022-12-01T03:18:03;34.37;;;16.40;;
13592;SDS011;6867;50.998;4.250;2022-12-01T03:20:36;32.83;;;17.53;;
13592;SDS011;6867;50.998;4.250;2022-12-01T03:23:08;36.00;;;17.10;;
13592;SDS011;6867;50.998;4.250;2022-12-01T03:25:40;38.90;;;17.00;;
13592;SDS011;6867;50.998;4.250;2022-12-01T03:28:12;30.83;;;15.33;;
13592;SDS011;6867;50.998;4.250;2022-12-01T03:30:43;34.50;;;14.77;;
13592;SDS011;6867;50.998;4.250;2022-12-01T03:33:13;30.20;;;16.00;;
13592;SDS011;6867;50.998;4.250;2022-12-01T03:35:47;31.80;;;15.13;;
13592;SDS011;6867;50.998;4.250;2022-12-01T03:38:18;33.57;;;15.83;;
13592;SDS011;6867;50.998;4.250;2022-12-01T03:40:49;32.80;;;15.23;;
13592;SDS011;6867;50.998;4.250;2022-12-01T03:43:19;32.43;;;16.90;;
13592;SDS011;6867;50.998;4.250;2022-12-01T03:45:52;31.70;;;14.80;;
13592;SDS011;6867;50.998;4.250;2022-12-01T03:48:25;30.33;;;15.13;;
13592;SDS011;6867;50.998;4.250;2022-12-01T03:50:54;34.23;;;15.83;;
13592;SDS011;6867;50.998;4.250;2022-12-01T03:53:29;36.73;;;15.90;;
13592;SDS011;6867;50.998;4.250;2022-12-01T03:56:03;37.77;;;15.23;;
13592;SDS011;6867;50.998;4.250;2022-12-01T03:58:33;32.50;;;15.30;;
13592;SDS011;6867;50.998;4.250;2022-12-01T04:01:03;30.13;;;13.97;;
13592;SDS011;6867;50.998;4.250;2022-12-01T04:03:34;31.77;;;14.57;;
13592;SDS011;6867;50.998;4.250;2022-12-01T04:06:00;25.57;;;13.90;;
13592;SDS011;6867;50.998;4.250;2022-12-01T04:08:27;28.33;;;13.67;;
13592;SDS011;6867;50.998;4.250;2022-12-01T04:10:54;31.93;;;16.23;;
13592;SDS011;6867;50.998;4.250;2022-12-01T04:13:21;29.37;;;14.33;;
13592;SDS011;6867;50.998;4.250;2022-12-01T04:15:47;32.50;;;15.40;;
13592;SDS011;6867;50.998;4.250;2022-12-01T04:18:15;32.93;;;14.40;;
13592;SDS011;6867;50.998;4.250;2022-12-01T04:20:43;30.80;;;14.43;;
13592;SDS011;6867;50.998;4.250;2022-12-01T04:23:10;36.60;;;15.10;;
13592;SDS011;6867;50.998;4.250;2022-12-01T04:25:58;31.73;;;14.87;;
13592;SDS011;6867;50.998;4.250;2022-12-01T04:28:25;31.67;;;14.77;;
13592;SDS011;6867;50.998;4.250;2022-12-01T04:30:51;30.80;;;13.27;;
13592;SDS011;6867;50.998;4.250;2022-12-01T04:33:19;28.53;;;13.87;;
13592;SDS011;6867;50.998;4.250;2022-12-01T04:35:55;32.70;;;13.97;;
13592;SDS011;6867;50.998;4.250;2022-12-01T04:38:23;31.70;;;14.70;;
13592;SDS011;6867;50.998;4.250;2022-12-01T04:40:50;28.83;;;14.50;;
13592;SDS011;6867;50.998;4.250;2022-12-01T04:43:16;29.63;;;13.93;;
13592;SDS011;6867;50.998;4.250;2022-12-01T04:45:43;31.13;;;13.90;;
13592;SDS011;6867;50.998;4.250;2022-12-01T04:48:10;32.93;;;15.67;;
13592;SDS011;6867;50.998;4.250;2022-12-01T04:50:37;26.70;;;13.60;;
13592;SDS011;6867;50.998;4.250;2022-12-01T04:53:05;28.77;;;14.73;;
13592;SDS011;6867;50.998;4.250;2022-12-01T04:55:35;32.57;;;14.20;;
13592;SDS011;6867;50.998;4.250;2022-12-01T04:58:03;26.97;;;14.63;;
13592;SDS011;6867;50.998;4.250;2022-12-01T05:00:30;29.43;;;15.03;;
13592;SDS011;6867;50.998;4.250;2022-12-01T05:02:57;28.97;;;14.90;;
13592;SDS011;6867;50.998;4.250;2022-12-01T05:05:24;26.27;;;14.70;;
13592;SDS011;6867;50.998;4.250;2022-12-01T05:07:51;33.07;;;15.33;;
13592;SDS011;6867;50.998;4.250;2022-12-01T05:10:19;33.53;;;15.80;;
13592;SDS011;6867;50.998;4.250;2022-12-01T05:12:45;35.03;;;14.20;;
13592;SDS011;6867;50.998;4.250;2022-12-01T05:15:12;31.17;;;15.47;;
13592;SDS011;6867;50.998;4.250;2022-12-01T05:17:39;32.77;;;14.37;;
13592;SDS011;6867;50.998;4.250;2022-12-01T05:20:06;28.20;;;14.60;;
13592;SDS011;6867;50.998;4.250;2022-12-01T05:22:53;33.23;;;14.67;;
13592;SDS011;6867;50.998;4.250;2022-12-01T05:25:24;31.07;;;14.60;;
13592;SDS011;6867;50.998;4.250;2022-12-01T05:27:51;25.77;;;13.67;;
13592;SDS011;6867;50.998;4.250;2022-12-01T05:30:18;31.67;;;14.93;;
13592;SDS011;6867;50.998;4.250;2022-12-01T05:32:45;29.23;;;13.57;;
13592;SDS011;6867;50.998;4.250;2022-12-01T05:35:11;29.00;;;14.87;;
13592;SDS011;6867;50.998;4.250;2022-12-01T05:37:38;31.40;;;14.63;;
13592;SDS011;6867;50.998;4.250;2022-12-01T05:40:05;30.27;;;13.73;;
13592;SDS011;6867;50.998;4.250;2022-12-01T05:42:34;29.90;;;15.50;;
13592;SDS011;6867;50.998;4.250;2022-12-01T05:45:00;29.47;;;14.07;;
13592;SDS011;6867;50.998;4.250;2022-12-01T05:47:27;31.87;;;14.17;;
13592;SDS011;6867;50.998;4.250;2022-12-01T05:49:54;29.27;;;13.53;;
13592;SDS011;6867;50.998;4.250;2022-12-01T05:52:20;26.87;;;14.73;;
13592;SDS011;6867;50.998;4.250;2022-12-01T05:54:47;24.37;;;12.80;;
13592;SDS011;6867;50.998;4.250;2022-12-01T05:57:14;30.83;;;14.10;;
13592;SDS011;6867;50.998;4.250;2022-12-01T05:59:42;28.60;;;13.90;;
13592;SDS011;6867;50.998;4.250;2022-12-01T06:02:08;26.87;;;12.97;;
13592;SDS011;6867;50.998;4.250;2022-12-01T06:04:36;28.20;;;14.97;;
13592;SDS011;6867;50.998;4.250;2022-12-01T06:07:03;27.07;;;13.73;;
13592;SDS011;6867;50.998;4.250;2022-12-01T06:09:30;34.70;;;15.27;;
13592;SDS011;6867;50.998;4.250;2022-12-01T06:11:56;28.07;;;14.27;;
13592;SDS011;6867;50.998;4.250;2022-12-01T06:14:23;33.03;;;14.93;;
13592;SDS011;6867;50.998;4.250;2022-12-01T06:16:51;28.03;;;13.43;;
13592;SDS011;6867;50.998;4.250;2022-12-01T06:19:18;33.40;;;15.27;;
13592;SDS011;6867;50.998;4.250;2022-12-01T06:21:44;30.57;;;15.00;;
13592;SDS011;6867;50.998;4.250;2022-12-01T06:24:11;30.03;;;15.03;;
13592;SDS011;6867;50.998;4.250;2022-12-01T06:26:38;24.60;;;14.00;;
13592;SDS011;6867;50.998;4.250;2022-12-01T06:29:04;31.07;;;14.93;;
13592;SDS011;6867;50.998;4.250;2022-12-01T06:31:31;36.13;;;16.13;;
13592;SDS011;6867;50.998;4.250;2022-12-01T06:33:59;32.30;;;14.37;;
13592;SDS011;6867;50.998;4.250;2022-12-01T06:36:26;36.00;;;16.77;;
13592;SDS011;6867;50.998;4.250;2022-12-01T06:38:52;31.73;;;16.00;;
13592;SDS011;6867;50.998;4.250;2022-12-01T06:41:19;31.93;;;15.53;;
13592;SDS011;6867;50.998;4.250;2022-12-01T06:43:45;31.77;;;15.07;;
13592;SDS011;6867;50.998;4.250;2022-12-01T06:46:12;36.80;;;16.63;;
13592;SDS011;6867;50.998;4.250;2022-12-01T06:48:39;29.70;;;15.40;;
13592;SDS011;6867;50.998;4.250;2022-12-01T06:51:07;32.87;;;15.23;;
13592;SDS011;6867;50.998;4.250;2022-12-01T06:53:33;35.13;;;16.00;;
13592;SDS011;6867;50.998;4.250;2022-12-01T06:56:00;33.87;;;15.33;;
13592;SDS011;6867;50.998;4.250;2022-12-01T06:58:27;33.90;;;14.63;;
13592;SDS011;6867;50.998;4.250;2022-12-01T07:00:54;35.33;;;15.50;;
13592;SDS011;6867;50.998;4.250;2022-12-01T07:03:22;32.60;;;15.93;;
13592;SDS011;6867;50.998;4.250;2022-12-01T07:05:53;33.30;;;15.57;;
13592;SDS011;6867;50.998;4.250;2022-12-01T07:08:23;30.90;;;15.30;;
13592;SDS011;6867;50.998;4.250;2022-12-01T07:10:55;33.23;;;15.83;;
13592;SDS011;6867;50.998;4.250;2022-12-01T07:13:22;33.30;;;15.57;;
13592;SDS011;6867;50.998;4.250;2022-12-01T07:15:49;31.03;;;15.53;;
13592;SDS011;6867;50.998;4.250;2022-12-01T07:18:15;38.63;;;16.33;;
13592;SDS011;6867;50.998;4.250;2022-12-01T07:20:42;30.57;;;14.90;;
13592;SDS011;6867;50.998;4.250;2022-12-01T07:23:09;37.00;;;15.57;;
13592;SDS011;6867;50.998;4.250;2022-12-01T07:25:37;33.07;;;16.27;;
13592;SDS011;6867;50.998;4.250;2022-12-01T07:28:03;38.67;;;16.87;;
13592;SDS011;6867;50.998;4.250;2022-12-01T07:30:30;33.90;;;17.63;;
13592;SDS011;6867;50.998;4.250;2022-12-01T07:32:57;38.07;;;17.37;;
13592;SDS011;6867;50.998;4.250;2022-12-01T07:35:25;35.53;;;16.77;;
13592;SDS011;6867;50.998;4.250;2022-12-01T07:37:52;34.53;;;17.07;;
13592;SDS011;6867;50.998;4.250;2022-12-01T07:40:20;37.53;;;17.70;;
13592;SDS011;6867;50.998;4.250;2022-12-01T07:42:49;45.83;;;19.97;;
13592;SDS011;6867;50.998;4.250;2022-12-01T07:45:15;32.90;;;18.77;;
13592;SDS011;6867;50.998;4.250;2022-12-01T07:47:42;45.53;;;20.37;;
13592;SDS011;6867;50.998;4.250;2022-12-01T07:50:09;41.20;;;19.17;;
13592;SDS011;6867;50.998;4.250;2022-12-01T07:52:36;41.03;;;18.87;;
13592;SDS011;6867;50.998;4.250;2022-12-01T07:55:03;39.47;;;19.33;;
13592;SDS011;6867;50.998;4.250;2022-12-01T07:57:31;33.80;;;17.37;;
13592;SDS011;6867;50.998;4.250;2022-12-01T07:59:59;38.57;;;17.80;;
13592;SDS011;6867;50.998;4.250;2022-12-01T08:02:25;39.30;;;18.97;;
13592;SDS011;6867;50.998;4.250;2022-12-01T08:04:52;41.33;;;19.43;;
13592;SDS011;6867;50.998;4.250;2022-12-01T08:07:18;42.20;;;19.00;;
13592;SDS011;6867;50.998;4.250;2022-12-01T08:09:45;33.27;;;18.43;;
13592;SDS011;6867;50.998;4.250;2022-12-01T08:12:12;39.67;;;18.80;;
13592;SDS011;6867;50.998;4.250;2022-12-01T08:14:38;42.00;;;19.00;;
13592;SDS011;6867;50.998;4.250;2022-12-01T08:17:06;38.57;;;18.97;;
13592;SDS011;6867;50.998;4.250;2022-12-01T08:19:33;40.13;;;19.40;;
13592;SDS011;6867;50.998;4.250;2022-12-01T08:22:00;42.07;;;19.97;;
13592;SDS011;6867;50.998;4.250;2022-12-01T08:24:26;40.50;;;18.50;;
13592;SDS011;6867;50.998;4.250;2022-12-01T08:26:53;44.07;;;19.77;;
13592;SDS011;6867;50.998;4.250;2022-12-01T08:29:19;39.80;;;18.60;;
13592;SDS011;6867;50.998;4.250;2022-12-01T08:31:47;39.80;;;20.07;;
13592;SDS011;6867;50.998;4.250;2022-12-01T08:34:15;40.07;;;19.17;;
13592;SDS011;6867;50.998;4.250;2022-12-01T08:36:41;36.07;;;18.00;;
13592;SDS011;6867;50.998;4.250;2022-12-01T08:39:08;34.57;;;18.23;;
13592;SDS011;6867;50.998;4.250;2022-12-01T08:41:36;37.07;;;18.70;;
13592;SDS011;6867;50.998;4.250;2022-12-01T08:44:03;40.20;;;19.67;;
13592;SDS011;6867;50.998;4.250;2022-12-01T08:46:31;39.27;;;18.07;;
13592;SDS011;6867;50.998;4.250;2022-12-01T08:48:59;43.33;;;20.20;;
13592;SDS011;6867;50.998;4.250;2022-12-01T08:51:27;37.50;;;19.03;;
13592;SDS011;6867;50.998;4.250;2022-12-01T08:53:54;33.07;;;18.47;;
13592;SDS011;6867;50.998;4.250;2022-12-01T08:56:24;34.30;;;17.77;;
13592;SDS011;6867;50.998;4.250;2022-12-01T08:58:52;38.27;;;17.47;;
13592;SDS011;6867;50.998;4.250;2022-12-01T09:01:20;37.07;;;17.90;;
13592;SDS011;6867;50.998;4.250;2022-12-01T09:03:47;40.60;;;18.33;;
13592;SDS011;6867;50.998;4.250;2022-12-01T09:06:30;37.80;;;18.03;;
13592;SDS011;6867;50.998;4.250;2022-12-01T09:08:57;34.17;;;18.23;;
13592;SDS011;6867;50.998;4.250;2022-12-01T09:11:24;39.80;;;19.23;;
13592;SDS011;6867;50.998;4.250;2022-12-01T09:13:51;38.47;;;18.43;;
13592;SDS011;6867;50.998;4.250;2022-12-01T09:16:18;37.77;;;17.73;;
13592;SDS011;6867;50.998;4.250;2022-12-01T09:18:45;34.23;;;18.57;;
13592;SDS011;6867;50.998;4.250;2022-12-01T09:21:13;33.57;;;17.90;;
13592;SDS011;6867;50.998;4.250;2022-12-01T09:23:42;35.97;;;17.40;;
13592;SDS011;6867;50.998;4.250;2022-12-01T09:26:09;36.73;;;17.90;;
13592;SDS011;6867;50.998;4.250;2022-12-01T09:28:36;34.40;;;17.33;;
13592;SDS011;6867;50.998;4.250;2022-12-01T09:31:03;32.07;;;17.53;;
13592;SDS011;6867;50.998;4.250;2022-12-01T09:33:31;33.23;;;17.57;;
13592;SDS011;6867;50.998;4.250;2022-12-01T09:35:58;37.87;;;17.97;;
13592;SDS011;6867;50.998;4.250;2022-12-01T09:38:25;30.90;;;16.23;;
13592;SDS011;6867;50.998;4.250;2022-12-01T09:40:55;32.57;;;17.73;;
13592;SDS011;6867;50.998;4.250;2022-12-01T09:43:39;33.93;;;17.53;;
13592;SDS011;6867;50.998;4.250;2022-12-01T09:46:10;34.47;;;16.77;;
13592;SDS011;6867;50.998;4.250;2022-12-01T09:48:42;35.53;;;17.90;;
13592;SDS011;6867;50.998;4.250;2022-12-01T09:51:12;31.90;;;17.20;;
13592;SDS011;6867;50.998;4.250;2022-12-01T09:53:39;36.53;;;16.80;;
13592;SDS011;6867;50.998;4.250;2022-12-01T09:56:14;31.73;;;17.00;;
13592;SDS011;6867;50.998;4.250;2022-12-01T09:58:45;33.37;;;16.57;;
13592;SDS011;6867;50.998;4.250;2022-12-01T10:01:15;31.93;;;16.97;;
13592;SDS011;6867;50.998;4.250;2022-12-01T10:03:44;34.80;;;17.23;;
13592;SDS011;6867;50.998;4.250;2022-12-01T10:06:15;32.93;;;17.33;;
13592;SDS011;6867;50.998;4.250;2022-12-01T10:08:49;34.87;;;17.80;;
13592;SDS011;6867;50.998;4.250;2022-12-01T10:11:26;37.33;;;16.97;;
13592;SDS011;6867;50.998;4.250;2022-12-01T10:13:58;29.27;;;16.87;;
13592;SDS011;6867;50.998;4.250;2022-12-01T10:16:27;33.60;;;17.97;;
13592;SDS011;6867;50.998;4.250;2022-12-01T10:19:00;37.77;;;16.93;;
13592;SDS011;6867;50.998;4.250;2022-12-01T10:21:37;38.77;;;17.77;;
13592;SDS011;6867;50.998;4.250;2022-12-01T10:24:17;33.33;;;17.13;;
13592;SDS011;6867;50.998;4.250;2022-12-01T10:26:57;32.70;;;16.17;;
13592;SDS011;6867;50.998;4.250;2022-12-01T10:29:34;35.87;;;17.17;;
13592;SDS011;6867;50.998;4.250;2022-12-01T10:32:13;37.30;;;18.40;;
13592;SDS011;6867;50.998;4.250;2022-12-01T10:34:43;36.23;;;17.63;;
13592;SDS011;6867;50.998;4.250;2022-12-01T10:37:12;33.83;;;18.33;;
13592;SDS011;6867;50.998;4.250;2022-12-01T10:39:44;38.13;;;17.73;;
13592;SDS011;6867;50.998;4.250;2022-12-01T10:42:14;36.80;;;18.37;;
13592;SDS011;6867;50.998;4.250;2022-12-01T10:44:44;34.23;;;18.67;;
13592;SDS011;6867;50.998;4.250;2022-12-01T10:47:14;37.20;;;17.63;;
13592;SDS011;6867;50.998;4.250;2022-12-01T10:49:44;36.40;;;18.97;;
13592;SDS011;6867;50.998;4.250;2022-12-01T10:52:25;40.83;;;18.67;;
13592;SDS011;6867;50.998;4.250;2022-12-01T10:54:56;37.43;;;17.87;;
13592;SDS011;6867;50.998;4.250;2022-12-01T10:57:25;33.17;;;18.50;;
13592;SDS011;6867;50.998;4.250;2022-12-01T10:59:54;30.83;;;15.80;;
13592;SDS011;6867;50.998;4.250;2022-12-01T11:02:24;35.03;;;17.87;;
13592;SDS011;6867;50.998;4.250;2022-12-01T11:04:53;32.90;;;17.33;;
13592;SDS011;6867;50.998;4.250;2022-12-01T11:07:23;31.93;;;16.93;;
13592;SDS011;6867;50.998;4.250;2022-12-01T11:10:05;34.93;;;17.57;;
13592;SDS011;6867;50.998;4.250;2022-12-01T11:12:43;37.40;;;18.07;;
13592;SDS011;6867;50.998;4.250;2022-12-01T11:15:18;35.63;;;17.97;;
13592;SDS011;6867;50.998;4.250;2022-12-01T11:17:47;34.67;;;18.40;;
13592;SDS011;6867;50.998;4.250;2022-12-01T11:20:30;31.10;;;17.10;;
13592;SDS011;6867;50.998;4.250;2022-12-01T11:25:59;35.30;;;16.13;;
13592;SDS011;6867;50.998;4.250;2022-12-01T11:28:31;33.43;;;17.33;;
13592;SDS011;6867;50.998;4.250;2022-12-01T11:31:00;32.63;;;17.97;;
13592;SDS011;6867;50.998;4.250;2022-12-01T11:33:29;34.33;;;18.23;;
13592;SDS011;6867;50.998;4.250;2022-12-01T11:36:02;32.97;;;16.43;;
13592;SDS011;6867;50.998;4.250;2022-12-01T11:38:30;31.53;;;16.93;;
13592;SDS011;6867;50.998;4.250;2022-12-01T11:40:58;34.50;;;16.70;;
13592;SDS011;6867;50.998;4.250;2022-12-01T11:43:26;28.70;;;16.60;;
13592;SDS011;6867;50.998;4.250;2022-12-01T11:45:58;28.70;;;15.80;;
13592;SDS011;6867;50.998;4.250;2022-12-01T11:48:28;31.70;;;17.13;;
13592;SDS011;6867;50.998;4.250;2022-12-01T11:51:00;33.57;;;17.47;;
13592;SDS011;6867;50.998;4.250;2022-12-01T11:53:33;40.00;;;22.23;;
13592;SDS011;6867;50.998;4.250;2022-12-01T11:56:14;31.37;;;17.70;;
13592;SDS011;6867;50.998;4.250;2022-12-01T11:58:44;30.57;;;16.70;;
13592;SDS011;6867;50.998;4.250;2022-12-01T12:01:15;31.63;;;16.77;;
13592;SDS011;6867;50.998;4.250;2022-12-01T12:03:50;28.73;;;16.07;;
13592;SDS011;6867;50.998;4.250;2022-12-01T12:06:25;27.37;;;15.77;;
13592;SDS011;6867;50.998;4.250;2022-12-01T12:09:02;26.63;;;14.40;;
13592;SDS011;6867;50.998;4.250;2022-12-01T12:11:44;23.10;;;14.07;;
13592;SDS011;6867;50.998;4.250;2022-12-01T12:14:23;25.70;;;15.40;;
13592;SDS011;6867;50.998;4.250;2022-12-01T12:17:13;23.07;;;14.13;;
13592;SDS011;6867;50.998;4.250;2022-12-01T12:22:47;26.50;;;13.93;;
13592;SDS011;6867;50.998;4.250;2022-12-01T12:25:26;25.83;;;14.60;;
13592;SDS011;6867;50.998;4.250;2022-12-01T12:28:04;25.53;;;14.70;;
13592;SDS011;6867;50.998;4.250;2022-12-01T12:30:41;33.00;;;16.13;;
13592;SDS011;6867;50.998;4.250;2022-12-01T12:33:34;31.07;;;15.20;;
13592;SDS011;6867;50.998;4.250;2022-12-01T12:36:17;26.40;;;15.07;;
13592;SDS011;6867;50.998;4.250;2022-12-01T12:38:58;30.40;;;16.40;;
13592;SDS011;6867;50.998;4.250;2022-12-01T12:41:34;27.63;;;16.63;;
13592;SDS011;6867;50.998;4.250;2022-12-01T12:44:20;29.73;;;15.27;;
13592;SDS011;6867;50.998;4.250;2022-12-01T12:47:00;27.90;;;15.23;;
13592;SDS011;6867;50.998;4.250;2022-12-01T12:49:39;27.57;;;15.87;;
13592;SDS011;6867;50.998;4.250;2022-12-01T12:52:10;28.00;;;14.70;;
13592;SDS011;6867;50.998;4.250;2022-12-01T12:54:42;27.97;;;15.43;;
13592;SDS011;6867;50.998;4.250;2022-12-01T12:57:17;25.73;;;14.23;;
13592;SDS011;6867;50.998;4.250;2022-12-01T12:59:49;27.97;;;14.90;;
13592;SDS011;6867;50.998;4.250;2022-12-01T13:02:22;25.43;;;14.17;;
13592;SDS011;6867;50.998;4.250;2022-12-01T13:04:55;27.67;;;14.97;;
13592;SDS011;6867;50.998;4.250;2022-12-01T13:07:30;24.67;;;14.43;;
13592;SDS011;6867;50.998;4.250;2022-12-01T13:10:02;28.20;;;14.83;;
13592;SDS011;6867;50.998;4.250;2022-12-01T13:12:34;28.37;;;14.87;;
13592;SDS011;6867;50.998;4.250;2022-12-01T13:15:05;32.03;;;15.03;;
13592;SDS011;6867;50.998;4.250;2022-12-01T13:17:41;29.60;;;15.07;;
13592;SDS011;6867;50.998;4.250;2022-12-01T13:20:12;31.03;;;15.43;;
13592;SDS011;6867;50.998;4.250;2022-12-01T13:22:41;29.10;;;14.37;;
13592;SDS011;6867;50.998;4.250;2022-12-01T13:25:10;27.50;;;14.80;;
13592;SDS011;6867;50.998;4.250;2022-12-01T13:27:39;29.37;;;14.97;;
13592;SDS011;6867;50.998;4.250;2022-12-01T13:30:15;26.60;;;13.83;;
13592;SDS011;6867;50.998;4.250;2022-12-01T13:32:44;27.67;;;15.03;;
13592;SDS011;6867;50.998;4.250;2022-12-01T13:35:21;25.30;;;13.97;;
13592;SDS011;6867;50.998;4.250;2022-12-01T13:37:53;26.57;;;14.07;;
13592;SDS011;6867;50.998;4.250;2022-12-01T13:40:39;29.87;;;14.57;;
13592;SDS011;6867;50.998;4.250;2022-12-01T13:43:12;22.77;;;13.97;;
13592;SDS011;6867;50.998;4.250;2022-12-01T13:45:43;25.23;;;14.67;;
13592;SDS011;6867;50.998;4.250;2022-12-01T13:48:25;23.03;;;13.07;;
13592;SDS011;6867;50.998;4.250;2022-12-01T13:50:59;23.77;;;13.40;;
13592;SDS011;6867;50.998;4.250;2022-12-01T13:53:27;28.57;;;14.60;;
13592;SDS011;6867;50.998;4.250;2022-12-01T13:55:57;28.37;;;14.73;;
13592;SDS011;6867;50.998;4.250;2022-12-01T13:58:43;24.03;;;13.10;;
13592;SDS011;6867;50.998;4.250;2022-12-01T14:07:13;21.10;;;12.53;;
13592;SDS011;6867;50.998;4.250;2022-12-01T14:12:51;18.63;;;10.30;;
13592;SDS011;6867;50.998;4.250;2022-12-01T14:15:29;18.63;;;10.20;;
13592;SDS011;6867;50.998;4.250;2022-12-01T14:18:15;17.77;;;10.03;;
13592;SDS011;6867;50.998;4.250;2022-12-01T14:20:50;17.93;;;9.30;;
13592;SDS011;6867;50.998;4.250;2022-12-01T14:23:22;14.40;;;9.00;;
13592;SDS011;6867;50.998;4.250;2022-12-01T14:26:12;15.03;;;8.83;;
13592;SDS011;6867;50.998;4.250;2022-12-01T14:34:53;15.47;;;8.37;;
13592;SDS011;6867;50.998;4.250;2022-12-01T14:37:26;16.53;;;8.33;;
13592;SDS011;6867;50.998;4.250;2022-12-01T14:40:04;17.77;;;8.97;;
13592;SDS011;6867;50.998;4.250;2022-12-01T14:42:36;14.80;;;9.10;;
13592;SDS011;6867;50.998;4.250;2022-12-01T14:45:23;15.47;;;8.30;;
13592;SDS011;6867;50.998;4.250;2022-12-01T14:47:59;17.37;;;9.37;;
13592;SDS011;6867;50.998;4.250;2022-12-01T14:50:30;43.73;;;17.03;;
13592;SDS011;6867;50.998;4.250;2022-12-01T14:53:03;35.47;;;17.70;;
13592;SDS011;6867;50.998;4.250;2022-12-01T14:55:39;24.83;;;13.53;;
13592;SDS011;6867;50.998;4.250;2022-12-01T14:58:11;32.13;;;15.53;;
13592;SDS011;6867;50.998;4.250;2022-12-01T15:00:48;30.67;;;14.93;;
13592;SDS011;6867;50.998;4.250;2022-12-01T15:03:21;78.37;;;31.60;;
13592;SDS011;6867;50.998;4.250;2022-12-01T15:05:49;28.80;;;14.70;;
13592;SDS011;6867;50.998;4.250;2022-12-01T15:08:18;20.67;;;12.20;;
13592;SDS011;6867;50.998;4.250;2022-12-01T15:10:50;23.87;;;11.87;;
13592;SDS011;6867;50.998;4.250;2022-12-01T15:13:19;55.17;;;25.97;;
13592;SDS011;6867;50.998;4.250;2022-12-01T15:15:49;22.70;;;12.77;;
13592;SDS011;6867;50.998;4.250;2022-12-01T15:18:20;27.27;;;13.70;;
13592;SDS011;6867;50.998;4.250;2022-12-01T15:20:48;23.10;;;11.47;;